createdAt,value
2017-06-12T00:00:20.080Z,20.30
2017-06-12T00:02:48.539Z,20.20
2017-06-12T00:05:16.985Z,20.20
2017-06-12T00:07:45.430Z,20.10
2017-06-12T00:10:13.950Z,20.10
2017-06-12T00:12:42.527Z,20.00
2017-06-12T00:15:10.962Z,19.90
2017-06-12T00:17:39.723Z,19.90
2017-06-12T00:20:08.188Z,19.90
2017-06-12T00:22:36.624Z,19.90
2017-06-12T00:25:05.043Z,19.90
2017-06-12T00:27:33.600Z,19.90
2017-06-12T00:30:02.036Z,19.90
2017-06-12T00:32:30.479Z,19.80
2017-06-12T00:34:59.690Z,19.80
2017-06-12T00:37:28.123Z,19.80
2017-06-12T00:39:56.572Z,19.70
2017-06-12T00:42:25.007Z,19.70
2017-06-12T00:44:53.451Z,19.70
2017-06-12T00:47:21.884Z,19.70
2017-06-12T00:49:51.088Z,19.90
2017-06-12T00:52:20.292Z,19.70
2017-06-12T00:54:48.723Z,19.60
2017-06-12T00:57:17.560Z,19.50
2017-06-12T00:59:46.826Z,19.60
2017-06-12T01:02:15.279Z,19.60
2017-06-12T01:04:43.716Z,19.50
2017-06-12T01:07:12.927Z,19.40
2017-06-12T01:09:41.440Z,19.40
2017-06-12T01:12:09.876Z,19.30
2017-06-12T01:14:39.196Z,19.10
2017-06-12T01:17:07.622Z,19.00
2017-06-12T01:19:36.099Z,19.10
2017-06-12T01:22:15.864Z,19.00
2017-06-12T01:24:44.311Z,18.90
2017-06-12T01:27:12.732Z,18.90
2017-06-12T01:29:41.195Z,19.00
2017-06-12T01:32:09.639Z,19.00
2017-06-12T01:34:38.096Z,19.00
2017-06-12T01:37:07.372Z,18.90
2017-06-12T01:39:35.815Z,18.90
2017-06-12T01:42:03.895Z,18.90
2017-06-12T01:44:32.336Z,18.80
2017-06-12T01:47:01.560Z,18.90
2017-06-12T01:49:29.995Z,18.80
2017-06-12T01:51:58.415Z,18.90
2017-06-12T01:54:26.497Z,18.80
2017-06-12T01:56:54.978Z,18.70
2017-06-12T01:59:23.406Z,18.60
2017-06-12T02:01:51.942Z,18.50
2017-06-12T02:04:20.376Z,18.50
2017-06-12T02:06:48.810Z,18.50
2017-06-12T02:09:17.259Z,18.40
2017-06-12T02:11:46.471Z,18.20
2017-06-12T02:14:14.898Z,18.20
2017-06-12T02:16:43.444Z,18.10
2017-06-12T02:19:11.870Z,18.20
2017-06-12T02:21:40.411Z,18.10
2017-06-12T02:24:08.836Z,18.20
2017-06-12T02:26:37.262Z,18.20
2017-06-12T02:29:06.467Z,18.20
2017-06-12T02:31:34.907Z,18.10
2017-06-12T02:34:03.335Z,18.10
2017-06-12T02:36:31.791Z,18.10
2017-06-12T02:39:01.006Z,18.20
2017-06-12T02:41:30.211Z,18.10
2017-06-12T02:43:58.650Z,18.10
2017-06-12T02:46:27.095Z,18.10
2017-06-12T02:48:55.571Z,18.00
2017-06-12T02:51:24.011Z,18.00
2017-06-12T02:53:52.664Z,17.90
2017-06-12T02:56:21.082Z,18.00
2017-06-12T02:58:50.302Z,18.20
2017-06-12T03:01:19.133Z,18.20
2017-06-12T03:03:47.598Z,18.20
2017-06-12T03:06:16.270Z,18.20
2017-06-12T03:08:44.695Z,18.30
2017-06-12T03:11:13.143Z,18.30
2017-06-12T03:13:40.880Z,18.30
2017-06-12T03:16:10.223Z,18.20
2017-06-12T03:18:38.659Z,18.20
2017-06-12T03:21:07.510Z,18.00
2017-06-12T03:23:35.966Z,17.90
2017-06-12T03:26:04.407Z,17.90
2017-06-12T03:28:32.870Z,17.80
2017-06-12T03:31:01.303Z,17.80
2017-06-12T03:33:29.811Z,17.70
2017-06-12T03:35:58.251Z,17.70
2017-06-12T03:38:26.022Z,17.90
2017-06-12T03:40:54.459Z,17.90
2017-06-12T03:43:24.551Z,18.10
2017-06-12T03:45:52.979Z,18.20
2017-06-12T03:48:22.271Z,18.20
2017-06-12T03:50:50.701Z,18.20
2017-06-12T03:53:19.140Z,18.20
2017-06-12T03:55:47.587Z,18.30
2017-06-12T03:58:16.239Z,18.30
2017-06-12T04:00:44.683Z,18.40
2017-06-12T04:03:13.115Z,18.60
2017-06-12T04:05:41.569Z,18.60
2017-06-12T04:08:10.776Z,18.70
2017-06-12T04:10:39.202Z,18.70
2017-06-12T04:13:07.674Z,18.90
2017-06-12T04:15:36.139Z,18.80
2017-06-12T04:18:04.579Z,19.00
2017-06-12T04:20:33.019Z,19.00
2017-06-12T04:23:01.497Z,19.00
2017-06-12T04:25:30.350Z,19.30
2017-06-12T04:27:59.557Z,19.50
2017-06-12T04:30:27.983Z,19.50
2017-06-12T04:32:56.632Z,19.60
2017-06-12T04:35:25.065Z,19.80
2017-06-12T04:37:53.491Z,19.80
2017-06-12T04:40:21.955Z,19.90
2017-06-12T04:42:51.224Z,20.00
2017-06-12T04:45:19.727Z,20.00
2017-06-12T04:47:48.143Z,20.10
2017-06-12T04:50:16.590Z,20.20
2017-06-12T04:52:45.020Z,20.10
2017-06-12T04:55:13.447Z,20.10
2017-06-12T04:57:41.935Z,20.20
2017-06-12T05:00:10.368Z,20.10
2017-06-12T05:02:38.824Z,20.10
2017-06-12T05:05:07.269Z,20.30
2017-06-12T05:07:35.916Z,20.30
2017-06-12T05:10:04.367Z,20.30
2017-06-12T05:12:33.573Z,20.40
2017-06-12T05:15:01.998Z,20.40
2017-06-12T05:17:30.438Z,20.50
2017-06-12T05:19:58.871Z,20.50
2017-06-12T05:22:27.291Z,20.50
2017-06-12T05:24:55.727Z,20.60
2017-06-12T05:27:24.169Z,20.80
2017-06-12T05:29:52.598Z,20.80
2017-06-12T05:32:21.056Z,20.80
2017-06-12T05:34:49.467Z,20.80
2017-06-12T05:37:17.943Z,20.90
2017-06-12T05:39:46.362Z,21.00
2017-06-12T05:42:14.794Z,21.10
2017-06-12T05:44:43.244Z,21.10
2017-06-12T05:47:11.703Z,21.10
2017-06-12T05:49:40.895Z,21.30
2017-06-12T05:52:10.206Z,21.30
2017-06-12T05:54:38.667Z,21.40
2017-06-12T05:57:07.096Z,21.40
2017-06-12T05:59:35.536Z,21.50
2017-06-12T06:02:04.731Z,21.70
2017-06-12T06:04:33.175Z,21.60
2017-06-12T06:07:01.595Z,21.70
2017-06-12T06:09:30.051Z,21.60
2017-06-12T06:11:58.491Z,21.70
2017-06-12T06:14:26.934Z,21.60
2017-06-12T06:16:55.364Z,21.60
2017-06-12T06:19:23.810Z,21.70
2017-06-12T06:21:53.018Z,21.70
2017-06-12T06:24:22.323Z,21.90
2017-06-12T06:26:50.766Z,21.80
2017-06-12T06:29:19.212Z,22.20
2017-06-12T06:31:47.652Z,22.40
2017-06-12T06:34:16.205Z,22.40
2017-06-12T06:36:44.667Z,22.40
2017-06-12T06:39:13.111Z,22.40
2017-06-12T06:41:42.293Z,22.00
2017-06-12T06:44:11.486Z,21.90
2017-06-12T06:46:39.935Z,21.80
2017-06-12T06:49:08.355Z,21.80
2017-06-12T06:51:37.676Z,22.10
2017-06-12T06:54:06.107Z,22.10
2017-06-12T06:56:34.739Z,22.40
2017-06-12T06:59:03.959Z,22.90
2017-06-12T07:01:32.366Z,22.90
2017-06-12T07:04:00.823Z,23.40
2017-06-12T07:06:29.238Z,23.50
2017-06-12T07:08:57.816Z,23.20
2017-06-12T07:11:26.252Z,23.20
2017-06-12T07:13:54.787Z,23.20
2017-06-12T07:16:23.268Z,23.30
2017-06-12T07:18:51.679Z,23.40
2017-06-12T07:21:20.895Z,24.10
2017-06-12T07:23:50.088Z,24.30
2017-06-12T07:26:19.292Z,24.30
2017-06-12T07:28:48.567Z,24.30
2017-06-12T07:31:17.030Z,24.20
2017-06-12T07:33:45.451Z,23.80
2017-06-12T07:36:14.277Z,24.00
2017-06-12T07:38:42.722Z,24.00
2017-06-12T07:41:11.920Z,24.90
2017-06-12T07:43:41.132Z,24.70
2017-06-12T07:46:10.315Z,24.70
2017-06-12T07:48:39.518Z,24.80
2017-06-12T07:51:08.737Z,24.50
2017-06-12T07:53:37.178Z,24.50
2017-06-12T07:56:05.622Z,24.70
2017-06-12T07:58:34.158Z,24.60
2017-06-12T08:01:03.355Z,24.50
2017-06-12T08:03:32.674Z,24.10
2017-06-12T08:06:01.114Z,23.80
2017-06-12T08:08:29.549Z,23.70
2017-06-12T08:10:57.988Z,23.60
2017-06-12T08:13:26.454Z,23.80
2017-06-12T08:15:54.928Z,23.70
2017-06-12T08:18:23.369Z,23.60
2017-06-12T08:20:51.806Z,23.50
2017-06-12T08:23:20.231Z,23.60
2017-06-12T08:25:48.843Z,23.40
2017-06-12T08:28:17.291Z,23.50
2017-06-12T08:30:46.487Z,23.40
2017-06-12T08:33:15.735Z,23.80
2017-06-12T08:35:44.178Z,23.90
2017-06-12T08:38:12.651Z,24.10
2017-06-12T08:40:41.855Z,24.20
2017-06-12T08:43:10.611Z,24.20
2017-06-12T08:45:39.043Z,24.10
2017-06-12T08:48:07.483Z,24.00
2017-06-12T08:50:36.315Z,24.00
2017-06-12T08:53:04.743Z,24.10
2017-06-12T08:55:33.194Z,23.90
2017-06-12T08:58:02.397Z,23.90
2017-06-12T09:00:31.231Z,23.60
2017-06-12T09:03:00.446Z,23.70
2017-06-12T09:05:29.659Z,23.70
2017-06-12T09:07:58.123Z,23.80
2017-06-12T09:10:27.323Z,24.00
2017-06-12T09:12:56.527Z,24.20
2017-06-12T09:15:25.706Z,24.10
2017-06-12T09:17:54.912Z,24.00
2017-06-12T09:20:24.119Z,24.10
2017-06-12T09:22:53.405Z,24.00
2017-06-12T09:25:22.045Z,23.90
2017-06-12T09:27:50.542Z,24.10
2017-06-12T09:30:19.746Z,24.30
2017-06-12T09:32:48.167Z,24.30
2017-06-12T09:35:16.607Z,24.10
2017-06-12T09:37:45.043Z,24.20
2017-06-12T09:40:13.459Z,23.90
2017-06-12T09:42:41.899Z,24.10
2017-06-12T09:45:10.321Z,24.10
2017-06-12T09:47:38.746Z,24.30
2017-06-12T09:50:07.571Z,24.40
2017-06-12T09:52:36.015Z,24.40
2017-06-12T09:55:04.450Z,23.90
2017-06-12T09:57:32.866Z,23.80
2017-06-12T10:00:01.314Z,24.20
2017-06-12T10:02:29.732Z,24.20
2017-06-12T10:04:58.867Z,24.40
2017-06-12T10:07:27.303Z,24.50
2017-06-12T10:09:55.735Z,24.60
2017-06-12T10:12:24.566Z,24.30
2017-06-12T10:14:53.035Z,24.30
2017-06-12T10:17:21.871Z,24.10
2017-06-12T10:19:50.299Z,23.90
2017-06-12T10:22:18.752Z,24.00
2017-06-12T10:24:47.207Z,24.10
2017-06-12T10:27:15.659Z,23.90
2017-06-12T10:29:44.100Z,23.70
2017-06-12T10:32:12.534Z,23.90
2017-06-12T10:37:18.094Z,24.10
2017-06-12T10:39:47.655Z,24.10
2017-06-12T10:42:16.103Z,24.10
2017-06-12T10:44:44.555Z,24.00
2017-06-12T10:47:12.978Z,24.30
2017-06-12T10:49:41.411Z,23.90
2017-06-12T10:52:09.872Z,24.10
2017-06-12T10:54:38.293Z,24.20
2017-06-12T10:57:06.750Z,24.20
2017-06-12T10:59:35.179Z,24.10
2017-06-12T11:02:03.897Z,24.00
2017-06-12T11:04:32.315Z,24.10
2017-06-12T11:07:00.819Z,23.90
2017-06-12T11:09:29.247Z,23.60
2017-06-12T11:11:57.995Z,23.70
2017-06-12T11:14:26.432Z,23.70
2017-06-12T11:16:54.894Z,23.80
2017-06-12T11:19:23.600Z,24.00
2017-06-12T11:21:53.517Z,23.80
2017-06-12T11:24:21.739Z,24.00
2017-06-12T11:26:50.255Z,24.00
2017-06-12T11:29:18.763Z,23.90
2017-06-12T11:31:46.995Z,24.00
2017-06-12T11:34:15.729Z,24.40
2017-06-12T11:36:44.159Z,26.20
2017-06-12T11:39:12.599Z,24.50
2017-06-12T11:41:41.051Z,24.90
2017-06-12T11:44:09.483Z,25.20
2017-06-12T11:46:38.204Z,24.90
2017-06-12T11:49:06.655Z,24.70
2017-06-12T11:51:35.099Z,24.80
2017-06-12T11:54:03.554Z,24.80
2017-06-12T11:56:31.974Z,24.80
2017-06-12T11:59:00.418Z,24.80
2017-06-12T12:01:28.852Z,24.80
2017-06-12T12:03:57.295Z,24.70
2017-06-12T12:06:25.732Z,24.50
2017-06-12T12:08:54.370Z,24.60
2017-06-12T12:11:22.979Z,25.10
2017-06-12T12:13:51.409Z,24.80
2017-06-12T12:16:19.834Z,25.20
2017-06-12T12:18:48.294Z,25.30
2017-06-12T12:21:17.038Z,25.60
2017-06-12T12:23:45.511Z,25.80
2017-06-12T12:26:13.944Z,25.50
2017-06-12T12:28:42.383Z,25.50
2017-06-12T12:31:11.079Z,25.50
2017-06-12T12:33:39.563Z,25.50
2017-06-12T12:36:07.975Z,25.70
2017-06-12T12:38:36.435Z,25.40
2017-06-12T12:41:05.263Z,25.30
2017-06-12T12:43:33.708Z,25.40
2017-06-12T12:46:02.553Z,25.40
2017-06-12T12:48:30.990Z,25.60
2017-06-12T12:50:59.810Z,26.00
2017-06-12T12:53:28.255Z,25.80
2017-06-12T12:55:57.156Z,25.80
2017-06-12T12:58:25.972Z,25.70
2017-06-12T13:00:54.411Z,25.90
2017-06-12T13:03:22.841Z,26.10
2017-06-12T13:05:51.283Z,25.90
2017-06-12T13:08:20.107Z,26.40
2017-06-12T13:10:48.839Z,26.50
2017-06-12T13:13:17.279Z,26.60
2017-06-12T13:15:45.999Z,26.40
2017-06-12T13:18:14.879Z,26.40
2017-06-12T13:20:43.603Z,26.80
2017-06-12T13:23:12.232Z,27.30
2017-06-12T13:25:40.933Z,26.60
2017-06-12T13:28:09.756Z,26.30
2017-06-12T13:30:38.600Z,26.10
2017-06-12T13:33:07.439Z,26.30
2017-06-12T13:35:36.554Z,26.70
2017-06-12T13:38:05.000Z,26.70
2017-06-12T13:40:33.735Z,27.00
2017-06-12T13:43:02.155Z,27.20
2017-06-12T13:45:31.388Z,27.00
2017-06-12T13:48:00.080Z,27.10
2017-06-12T13:50:28.582Z,27.10
2017-06-12T13:52:57.783Z,26.70
2017-06-12T13:55:26.215Z,27.30
2017-06-12T13:57:54.967Z,27.50
2017-06-12T14:00:23.404Z,26.90
2017-06-12T14:02:51.963Z,27.40
2017-06-12T14:05:20.696Z,27.00
2017-06-12T14:07:49.459Z,27.60
2017-06-12T14:10:17.899Z,27.30
2017-06-12T14:12:47.111Z,27.40
2017-06-12T14:15:15.811Z,27.20
2017-06-12T14:17:44.630Z,28.00
2017-06-12T14:20:13.083Z,27.20
2017-06-12T14:22:41.519Z,26.80
2017-06-12T14:25:10.891Z,27.20
2017-06-12T14:27:39.356Z,27.80
2017-06-12T14:30:07.802Z,27.20
2017-06-12T14:32:36.523Z,27.20
2017-06-12T14:35:05.228Z,27.10
2017-06-12T14:37:35.350Z,26.50
2017-06-12T14:40:04.084Z,27.20
2017-06-12T14:42:32.532Z,27.30
2017-06-12T14:45:00.950Z,27.60
2017-06-12T14:47:29.388Z,27.80
2017-06-12T14:49:58.235Z,27.90
2017-06-12T14:52:26.662Z,27.60
2017-06-12T14:54:55.496Z,26.90
2017-06-12T14:57:24.352Z,26.70
2017-06-12T14:59:53.531Z,26.80
2017-06-12T15:02:22.700Z,27.00
2017-06-12T15:04:51.143Z,27.00
2017-06-12T15:07:21.022Z,27.10
2017-06-12T15:09:50.448Z,26.60
2017-06-12T15:12:18.879Z,26.40
2017-06-12T15:14:47.347Z,26.60
2017-06-12T15:17:15.792Z,26.80
2017-06-12T15:19:44.994Z,27.90
2017-06-12T15:22:13.391Z,28.20
2017-06-12T15:24:41.803Z,27.00
2017-06-12T15:27:10.212Z,26.50
2017-06-12T15:29:38.637Z,26.50
2017-06-12T15:32:07.462Z,27.30
2017-06-12T15:34:35.916Z,27.90
2017-06-12T15:37:04.328Z,27.40
2017-06-12T15:39:33.558Z,27.30
2017-06-12T15:42:02.767Z,26.80
2017-06-12T15:44:31.280Z,27.10
2017-06-12T15:47:00.507Z,27.40
2017-06-12T15:49:29.343Z,27.40
2017-06-12T15:51:58.201Z,27.40
2017-06-12T15:54:26.897Z,27.60
2017-06-12T15:56:55.353Z,27.10
2017-06-12T15:59:24.585Z,27.50
2017-06-12T16:01:53.407Z,27.20
2017-06-12T16:04:21.843Z,27.30
2017-06-12T16:06:50.267Z,27.00
2017-06-12T16:09:18.692Z,27.60
2017-06-12T16:11:47.901Z,27.70
2017-06-12T16:14:16.364Z,28.10
2017-06-12T16:16:45.063Z,27.00
2017-06-12T16:19:13.491Z,27.30
2017-06-12T16:21:41.954Z,26.80
2017-06-12T16:24:10.380Z,26.20
2017-06-12T16:26:39.050Z,26.10
2017-06-12T16:29:07.563Z,26.10
2017-06-12T16:31:36.009Z,26.60
2017-06-12T16:34:04.858Z,26.10
2017-06-12T16:36:33.559Z,26.20
2017-06-12T16:39:02.407Z,26.80
2017-06-12T16:41:31.262Z,26.60
2017-06-12T16:44:00.152Z,27.00
2017-06-12T16:46:29.331Z,26.80
2017-06-12T16:48:57.793Z,26.70
2017-06-12T16:51:27.279Z,26.20
2017-06-12T16:53:56.103Z,26.90
2017-06-12T16:56:24.540Z,27.10
2017-06-12T16:58:53.375Z,27.20
2017-06-12T17:01:21.795Z,27.40
2017-06-12T17:03:51.000Z,27.40
2017-06-12T17:06:19.823Z,27.50
2017-06-12T17:08:48.664Z,26.90
2017-06-12T17:11:17.878Z,26.80
2017-06-12T17:13:46.708Z,27.40
2017-06-12T17:16:15.160Z,27.10
2017-06-12T17:18:43.612Z,27.30
2017-06-12T17:21:12.059Z,27.20
2017-06-12T17:23:40.491Z,27.50
2017-06-12T17:26:08.997Z,26.90
2017-06-12T17:28:38.904Z,26.70
2017-06-12T17:31:08.375Z,27.20
2017-06-12T17:33:37.608Z,27.10
2017-06-12T17:36:06.052Z,26.80
2017-06-12T17:38:35.397Z,26.20
2017-06-12T17:41:04.853Z,26.10
2017-06-12T17:43:34.100Z,25.80
2017-06-12T17:46:02.528Z,26.00
2017-06-12T17:48:30.970Z,25.40
2017-06-12T17:50:59.750Z,25.10
2017-06-12T17:53:28.179Z,24.80
2017-06-12T17:55:56.612Z,24.40
2017-06-12T17:58:25.075Z,24.00
2017-06-12T18:00:53.526Z,23.80
2017-06-12T18:03:22.064Z,23.90
2017-06-12T18:05:50.545Z,23.60
2017-06-12T18:08:19.380Z,23.10
2017-06-12T18:10:47.916Z,23.00
2017-06-12T18:13:16.171Z,23.10
2017-06-12T18:15:44.597Z,23.00
2017-06-12T18:18:13.043Z,22.80
2017-06-12T18:20:41.479Z,22.60
2017-06-12T18:23:09.941Z,22.40
2017-06-12T18:25:38.402Z,22.20
2017-06-12T18:28:06.838Z,22.20
2017-06-12T18:30:36.064Z,22.20
2017-06-12T18:33:04.492Z,22.10
2017-06-12T18:35:33.014Z,22.00
2017-06-12T18:38:01.451Z,21.90
2017-06-12T18:40:29.887Z,21.80
2017-06-12T18:42:58.371Z,21.70
2017-06-12T18:45:26.834Z,21.70
2017-06-12T18:47:56.048Z,21.50
2017-06-12T18:50:24.591Z,21.50
2017-06-12T18:52:53.054Z,21.50
2017-06-12T18:55:22.166Z,21.50
2017-06-12T18:57:50.687Z,21.40
2017-06-12T19:00:19.731Z,21.30
2017-06-12T19:02:48.159Z,21.20
2017-06-12T19:05:17.375Z,21.00
2017-06-12T19:07:45.829Z,21.00
2017-06-12T19:10:15.051Z,20.90
2017-06-12T19:12:43.476Z,20.80
2017-06-12T19:15:11.925Z,20.80
2017-06-12T19:17:40.383Z,20.70
2017-06-12T19:20:09.631Z,20.60
2017-06-12T19:22:38.069Z,20.50
2017-06-12T19:25:07.279Z,20.40
2017-06-12T19:27:35.731Z,20.20
2017-06-12T19:30:04.166Z,20.20
2017-06-12T19:32:32.619Z,20.30
2017-06-12T19:35:01.144Z,20.20
2017-06-12T19:37:29.605Z,20.20
2017-06-12T19:39:58.026Z,19.90
2017-06-12T19:42:26.459Z,19.90
2017-06-12T19:44:54.901Z,19.90
2017-06-12T19:47:23.387Z,19.80
2017-06-12T19:49:52.595Z,19.70
2017-06-12T19:52:21.928Z,19.60
2017-06-12T19:54:50.553Z,19.50
2017-06-12T19:57:18.999Z,19.60
2017-06-12T19:59:47.457Z,19.30
2017-06-12T20:02:16.696Z,19.20
2017-06-12T20:04:45.131Z,19.10
2017-06-12T20:07:14.337Z,19.10
2017-06-12T20:09:43.551Z,19.10
2017-06-12T20:12:11.970Z,19.00
2017-06-12T20:14:40.429Z,18.90
2017-06-12T20:17:08.884Z,18.70
2017-06-12T20:19:38.136Z,18.50
2017-06-12T20:22:06.572Z,18.40
2017-06-12T20:24:35.111Z,18.40
2017-06-12T20:27:03.559Z,18.20
2017-06-12T20:29:31.974Z,18.30
2017-06-12T20:32:00.435Z,18.30
2017-06-12T20:34:28.863Z,18.40
2017-06-12T20:36:58.063Z,18.20
2017-06-12T20:39:27.323Z,18.10
2017-06-12T20:41:55.756Z,18.10
2017-06-12T20:44:24.897Z,18.00
2017-06-12T20:46:54.163Z,17.90
2017-06-12T20:49:22.619Z,17.80
2017-06-12T20:51:51.820Z,17.40
2017-06-12T20:54:21.027Z,17.30
2017-06-12T20:56:50.219Z,17.40
2017-06-12T20:59:19.439Z,17.50
2017-06-12T21:01:47.870Z,17.40
2017-06-12T21:04:16.295Z,17.50
2017-06-12T21:06:44.740Z,17.60
2017-06-12T21:09:13.262Z,17.50
2017-06-12T21:11:41.706Z,17.50
2017-06-12T21:14:10.134Z,17.40
2017-06-12T21:16:38.585Z,17.40
2017-06-12T21:19:07.794Z,17.40
2017-06-12T21:21:37.006Z,17.30
2017-06-12T21:24:05.616Z,17.30
2017-06-12T21:26:34.072Z,17.10
2017-06-12T21:29:02.501Z,17.00
2017-06-12T21:31:30.932Z,17.00
2017-06-12T21:33:59.527Z,16.90
2017-06-12T21:36:27.964Z,16.70
2017-06-12T21:38:56.413Z,16.70
2017-06-12T21:41:24.850Z,16.70
2017-06-12T21:43:54.055Z,16.60
2017-06-12T21:46:23.287Z,16.60
2017-06-12T21:48:51.975Z,16.50
2017-06-12T21:51:20.404Z,16.60
2017-06-12T21:53:48.827Z,16.60
2017-06-12T21:56:17.270Z,16.50
2017-06-12T21:58:46.475Z,16.40
2017-06-12T22:01:15.663Z,16.40
2017-06-12T22:03:44.113Z,16.30
2017-06-12T22:06:13.219Z,16.40
2017-06-12T22:08:41.779Z,16.30
2017-06-12T22:11:10.219Z,16.20
2017-06-12T22:13:39.427Z,16.10
2017-06-12T22:16:08.606Z,16.10
2017-06-12T22:18:37.812Z,16.00
2017-06-12T22:21:07.023Z,16.00
2017-06-12T22:23:35.455Z,15.90
2017-06-12T22:26:03.899Z,15.70
2017-06-12T22:28:32.339Z,15.70
2017-06-12T22:31:00.771Z,15.60
2017-06-12T22:33:29.207Z,15.40
2017-06-12T22:35:57.692Z,15.20
2017-06-12T22:38:26.143Z,15.20
2017-06-12T22:40:54.573Z,15.10
2017-06-12T22:43:23.763Z,15.10
2017-06-12T22:45:52.207Z,15.10
2017-06-12T22:48:21.347Z,15.10
2017-06-12T22:50:50.575Z,14.90
2017-06-12T22:53:20.458Z,14.80
2017-06-12T22:55:49.678Z,14.80
2017-06-12T22:58:18.155Z,14.60
2017-06-12T23:00:46.582Z,14.50
2017-06-12T23:03:15.089Z,14.50
2017-06-12T23:05:43.603Z,14.40
2017-06-12T23:08:12.076Z,14.40
2017-06-12T23:10:41.311Z,14.70
2017-06-12T23:13:09.875Z,14.60
2017-06-12T23:15:38.736Z,14.90
2017-06-12T23:18:07.156Z,14.80
2017-06-12T23:20:35.438Z,14.90
2017-06-12T23:23:03.876Z,14.90
2017-06-12T23:25:37.896Z,14.90
2017-06-12T23:28:07.312Z,14.80
2017-06-12T23:30:36.499Z,14.90
2017-06-12T23:33:05.775Z,14.80
2017-06-12T23:35:34.194Z,14.80
2017-06-12T23:38:03.391Z,14.80
2017-06-12T23:40:32.592Z,14.80
2017-06-12T23:43:01.789Z,14.70
2017-06-12T23:45:30.979Z,14.60
2017-06-12T23:48:00.175Z,14.60
2017-06-12T23:50:29.375Z,14.40
2017-06-12T23:52:58.582Z,14.30
2017-06-12T23:55:27.802Z,14.30
2017-06-12T23:57:56.255Z,14.20
